Arabia, OH (45659)

3:46 AM EDT on August 31, 2015 (GMT -0400)
South Ironton | | Change Station
CLOSE
Current Station
Personal Weather Station
Location: Ironton, OH
Elevation: 551 ft
Nearby Weather Stations

Elev 551 ft 38.52 °N, 82.67 °W | Updated 7 minutes ago

Mostly Cloudy
Mostly Cloudy
66.4 °F
Feels Like 66.4 °F
N
0.0
Wind Variable Wind from SE

Today
High -- | Low -- °F
--% Chance of Precip.
Yesterday
High -- | Low -- °F
Precip. -- in
6:58 AM 8:02 PM
Waning Gibbous, 96% visible
Pressure 30.07 in
Visibility 7.0 miles
Clouds Clear
Dew Point 63 °F
Humidity 89%
Rainfall 0.00 in
Snow Depth Not available.
UV 0 out of 12
Pollen 9.20 out of 12
Air Quality Not available.
Flu Activity Not available.
METAR KHTS 310651Z 00000KT 7SM CLR 19/19 A3009 RMK AO2 SLP182 T01940189
Pressure 30.07 in
Visibility 7.0 miles
Clouds Clear
Dew Point 63 °F
Humidity 89%
Rainfall 0.00 in
Snow Depth Not available.
UV 0 out of 12
Pollen 9.20 out of 12
Air Quality Not available.
Flu Activity Not available.
METAR KHTS 310651Z 00000KT 7SM CLR 19/19 A3009 RMK AO2 SLP182 T01940189

10-Day Weather Forecast

×

Almanac

Astronomy

Aug. 31, 2015 Rise Set
Actual Time
Civil Twilight
Nautical Twilight
Astronomical Twilight
Moon
Length of Visible Light
Length of Day
Tomorrow will be .
, % of the Moon is Illuminated

Today's Extremes

State Highs State Lows

Community

WunderPhotos

Upload Photos

1,851,220 photos uploaded!

WunderBlogs® & News

Nearby

Air Quality

  Air Quality AQ Index Pollutant
Not available.

Snow Depth

Station Depth Elevation

Earthquake Activity

City Distance Mag. Time & Date
Minimum magnitude displayed is 2.5.

Coastal Water Temperatures

Place Temperature

Stations

Nearby Weather Stations

Station Location Temp. Windchill Dew Point Humidity Wind Precip. Elev Updated Type